Terminal Aerodrome Forecast
Issued by NWS Brownsville, TX

Home | Current Version | Previous Version | Text Only | Print | Product List | Glossary On
Versions: 1 2 3 4 5 6 7 8 9 10 11 12 13 14 15 16 17 18 19
000
FTUS44 KBRO 211720
TAFHRL
TAF
KHRL 211720Z 2118/2218 21010KT P6SM FEW250
     FM220000 14004KT P6SM SKC
     FM220600 33010KT 4SM SHRA BR BKN020
     FM221100 35018G26KT P6SM OVC020=

USA.gov is the U.S. government's official web portal to all federal, state and local government web resources and services.